sensor_id;sensor_type;location;lat;lon;timestamp;pressure;altitude;pressure_sealevel;temperature;humidity
74594;BME280;63097;51.872;4.460;2023-02-05T00:00:33;103932.84;;;7.77;93.11
74594;BME280;63097;51.872;4.460;2023-02-05T00:02:58;103939.56;;;7.92;92.99
74594;BME280;63097;51.872;4.460;2023-02-05T00:05:23;103927.53;;;7.84;93.11
74594;BME280;63097;51.872;4.460;2023-02-05T00:07:49;103925.50;;;7.68;93.79
74594;BME280;63097;51.872;4.460;2023-02-05T00:10:15;103923.50;;;7.78;93.78
74594;BME280;63097;51.872;4.460;2023-02-05T00:12:40;103910.25;;;8.07;92.84
74594;BME280;63097;51.872;4.460;2023-02-05T00:15:06;103910.28;;;7.72;93.35
74594;BME280;63097;51.872;4.460;2023-02-05T00:17:33;103903.50;;;7.67;94.01
74594;BME280;63097;51.872;4.460;2023-02-05T00:19:59;103901.97;;;7.55;94.48
74594;BME280;63097;51.872;4.460;2023-02-05T00:22:24;103901.97;;;7.55;94.91
74594;BME280;63097;51.872;4.460;2023-02-05T00:24:49;103904.19;;;7.69;94.46
74594;BME280;63097;51.872;4.460;2023-02-05T00:27:15;103919.63;;;7.71;94.20
74594;BME280;63097;51.872;4.460;2023-02-05T00:29:40;103904.50;;;7.66;93.70
74594;BME280;63097;51.872;4.460;2023-02-05T00:32:05;103906.50;;;7.56;94.07
74594;BME280;63097;51.872;4.460;2023-02-05T00:34:31;103922.44;;;7.97;93.45
74594;BME280;63097;51.872;4.460;2023-02-05T00:36:56;103921.44;;;7.80;92.86
74594;BME280;63097;51.872;4.460;2023-02-05T00:39:21;103914.88;;;7.64;93.27
74594;BME280;63097;51.872;4.460;2023-02-05T00:41:46;103926.66;;;7.66;93.58
74594;BME280;63097;51.872;4.460;2023-02-05T00:44:12;103927.47;;;7.58;93.82
74594;BME280;63097;51.872;4.460;2023-02-05T00:46:37;103921.06;;;7.58;93.83
74594;BME280;63097;51.872;4.460;2023-02-05T00:49:02;103906.19;;;7.41;94.00
74594;BME280;63097;51.872;4.460;2023-02-05T00:51:28;103920.19;;;7.57;93.94
74594;BME280;63097;51.872;4.460;2023-02-05T00:53:53;103928.41;;;7.49;93.98
74594;BME280;63097;51.872;4.460;2023-02-05T00:56:18;103926.59;;;7.40;94.32
74594;BME280;63097;51.872;4.460;2023-02-05T00:58:44;103933.78;;;7.33;94.54
74594;BME280;63097;51.872;4.460;2023-02-05T01:01:09;103917.88;;;7.53;93.02
74594;BME280;63097;51.872;4.460;2023-02-05T01:03:34;103921.31;;;7.47;92.66
74594;BME280;63097;51.872;4.460;2023-02-05T01:06:00;103929.44;;;7.48;92.65
74594;BME280;63097;51.872;4.460;2023-02-05T01:08:25;103919.00;;;7.42;92.67
74594;BME280;63097;51.872;4.460;2023-02-05T01:10:50;103920.59;;;7.45;91.85
74594;BME280;63097;51.872;4.460;2023-02-05T01:13:16;103926.28;;;7.61;90.71
74594;BME280;63097;51.872;4.460;2023-02-05T01:15:42;103931.72;;;7.53;91.07
74594;BME280;63097;51.872;4.460;2023-02-05T01:18:08;103925.97;;;7.46;90.52
74594;BME280;63097;51.872;4.460;2023-02-05T01:20:37;103934.81;;;7.50;90.59
74594;BME280;63097;51.872;4.460;2023-02-05T01:23:03;103924.44;;;7.69;89.00
74594;BME280;63097;51.872;4.460;2023-02-05T01:25:29;103917.25;;;7.59;88.94
74594;BME280;63097;51.872;4.460;2023-02-05T01:27:54;103910.78;;;7.50;89.39
74594;BME280;63097;51.872;4.460;2023-02-05T01:30:20;103917.81;;;7.45;89.90
74594;BME280;63097;51.872;4.460;2023-02-05T01:32:45;103931.66;;;7.45;88.95
74594;BME280;63097;51.872;4.460;2023-02-05T01:35:10;103924.38;;;7.44;89.24
74594;BME280;63097;51.872;4.460;2023-02-05T01:37:36;103919.47;;;7.38;89.31
74594;BME280;63097;51.872;4.460;2023-02-05T01:40:01;103924.19;;;7.28;89.96
74594;BME280;63097;51.872;4.460;2023-02-05T01:42:29;103936.66;;;7.59;88.31
74594;BME280;63097;51.872;4.460;2023-02-05T01:45:38;103944.56;;;7.71;87.08
74594;BME280;63097;51.872;4.460;2023-02-05T01:48:03;103939.75;;;7.56;87.28
74594;BME280;63097;51.872;4.460;2023-02-05T01:50:32;103935.78;;;7.76;86.19
74594;BME280;63097;51.872;4.460;2023-02-05T01:53:03;103922.84;;;7.84;85.52
74594;BME280;63097;51.872;4.460;2023-02-05T01:55:29;103924.03;;;7.99;83.68
74594;BME280;63097;51.872;4.460;2023-02-05T01:57:55;103918.66;;;7.80;84.90
74594;BME280;63097;51.872;4.460;2023-02-05T02:00:22;103911.38;;;7.62;85.55
74594;BME280;63097;51.872;4.460;2023-02-05T02:02:47;103908.72;;;7.52;86.29
74594;BME280;63097;51.872;4.460;2023-02-05T02:05:15;103900.75;;;7.92;84.88
74594;BME280;63097;51.872;4.460;2023-02-05T02:07:41;103901.91;;;7.82;84.83
74594;BME280;63097;51.872;4.460;2023-02-05T02:10:10;103908.63;;;7.62;86.02
74594;BME280;63097;51.872;4.460;2023-02-05T02:12:39;103916.69;;;7.73;86.83
74594;BME280;63097;51.872;4.460;2023-02-05T02:15:12;103891.63;;;7.39;87.95
74594;BME280;63097;51.872;4.460;2023-02-05T02:17:41;103912.75;;;7.58;87.65
74594;BME280;63097;51.872;4.460;2023-02-05T02:20:18;103883.56;;;7.63;87.04
74594;BME280;63097;51.872;4.460;2023-02-05T02:28:10;103866.03;;;7.63;86.73
74594;BME280;63097;51.872;4.460;2023-02-05T02:33:31;103860.84;;;7.25;88.93
74594;BME280;63097;51.872;4.460;2023-02-05T02:38:54;103853.88;;;7.38;88.84
74594;BME280;63097;51.872;4.460;2023-02-05T02:41:28;103852.38;;;7.26;89.50
74594;BME280;63097;51.872;4.460;2023-02-05T02:44:03;103845.66;;;7.46;88.72
74594;BME280;63097;51.872;4.460;2023-02-05T02:46:51;103855.84;;;7.63;88.35
74594;BME280;63097;51.872;4.460;2023-02-05T02:49:43;103852.91;;;7.47;88.28
74594;BME280;63097;51.872;4.460;2023-02-05T02:52:12;103842.84;;;7.64;88.04
74594;BME280;63097;51.872;4.460;2023-02-05T02:54:40;103845.22;;;7.76;87.69
74594;BME280;63097;51.872;4.460;2023-02-05T02:57:09;103842.97;;;7.54;88.19
74594;BME280;63097;51.872;4.460;2023-02-05T02:59:37;103850.06;;;7.74;88.08
74594;BME280;63097;51.872;4.460;2023-02-05T03:02:04;103855.00;;;7.88;87.23
74594;BME280;63097;51.872;4.460;2023-02-05T03:04:35;103858.38;;;7.74;87.92
74594;BME280;63097;51.872;4.460;2023-02-05T03:07:19;103854.72;;;7.74;87.88
74594;BME280;63097;51.872;4.460;2023-02-05T03:09:51;103849.88;;;7.58;88.79
74594;BME280;63097;51.872;4.460;2023-02-05T03:12:21;103860.16;;;7.66;89.36
74594;BME280;63097;51.872;4.460;2023-02-05T03:14:46;103854.16;;;7.70;88.70
74594;BME280;63097;51.872;4.460;2023-02-05T03:17:12;103858.56;;;7.81;88.46
74594;BME280;63097;51.872;4.460;2023-02-05T03:19:37;103861.25;;;7.73;88.94
74594;BME280;63097;51.872;4.460;2023-02-05T03:22:03;103869.72;;;7.89;88.68
74594;BME280;63097;51.872;4.460;2023-02-05T03:24:31;103869.31;;;7.84;88.91
74594;BME280;63097;51.872;4.460;2023-02-05T03:26:56;103881.91;;;7.96;88.43
74594;BME280;63097;51.872;4.460;2023-02-05T03:29:35;103874.13;;;7.99;88.16
74594;BME280;63097;51.872;4.460;2023-02-05T03:34:53;103880.28;;;7.85;88.99
74594;BME280;63097;51.872;4.460;2023-02-05T03:40:25;103878.84;;;7.81;89.76
74594;BME280;63097;51.872;4.460;2023-02-05T03:45:47;103881.50;;;7.65;91.06
74594;BME280;63097;51.872;4.460;2023-02-05T03:51:24;103871.50;;;7.55;92.71
74594;BME280;63097;51.872;4.460;2023-02-05T03:56:38;103882.28;;;7.40;94.42
74594;BME280;63097;51.872;4.460;2023-02-05T03:59:08;103884.63;;;7.53;94.16
74594;BME280;63097;51.872;4.460;2023-02-05T04:01:33;103879.13;;;7.35;94.62
74594;BME280;63097;51.872;4.460;2023-02-05T04:03:59;103890.97;;;7.28;95.12
74594;BME280;63097;51.872;4.460;2023-02-05T04:06:24;103902.44;;;7.33;95.29
74594;BME280;63097;51.872;4.460;2023-02-05T04:08:50;103895.97;;;7.42;94.99
74594;BME280;63097;51.872;4.460;2023-02-05T04:11:15;103881.16;;;7.33;95.44
74594;BME280;63097;51.872;4.460;2023-02-05T04:13:40;103894.47;;;7.30;95.64
74594;BME280;63097;51.872;4.460;2023-02-05T04:16:05;103893.47;;;7.31;95.96
74594;BME280;63097;51.872;4.460;2023-02-05T04:18:31;103894.53;;;7.20;96.29
74594;BME280;63097;51.872;4.460;2023-02-05T04:20:56;103895.63;;;7.27;96.13
74594;BME280;63097;51.872;4.460;2023-02-05T04:23:21;103896.28;;;7.39;96.01
74594;BME280;63097;51.872;4.460;2023-02-05T04:25:51;103889.72;;;7.40;95.89
74594;BME280;63097;51.872;4.460;2023-02-05T04:28:17;103888.16;;;7.37;95.75
74594;BME280;63097;51.872;4.460;2023-02-05T04:30:42;103891.78;;;7.38;95.86
74594;BME280;63097;51.872;4.460;2023-02-05T04:33:08;103897.16;;;7.39;95.80
74594;BME280;63097;51.872;4.460;2023-02-05T04:35:33;103902.53;;;7.41;95.62
74594;BME280;63097;51.872;4.460;2023-02-05T04:37:58;103903.09;;;7.44;94.86
74594;BME280;63097;51.872;4.460;2023-02-05T04:40:24;103899.94;;;7.39;94.14
74594;BME280;63097;51.872;4.460;2023-02-05T04:42:49;103900.00;;;7.30;94.39
74594;BME280;63097;51.872;4.460;2023-02-05T04:45:14;103911.31;;;7.19;95.13
74594;BME280;63097;51.872;4.460;2023-02-05T04:47:40;103912.25;;;7.27;94.61
74594;BME280;63097;51.872;4.460;2023-02-05T04:50:05;103916.28;;;7.15;94.56
74594;BME280;63097;51.872;4.460;2023-02-05T04:52:30;103931.84;;;7.16;94.44
74594;BME280;63097;51.872;4.460;2023-02-05T04:54:56;103932.72;;;7.17;94.47
74594;BME280;63097;51.872;4.460;2023-02-05T04:57:21;103938.47;;;7.05;94.77
74594;BME280;63097;51.872;4.460;2023-02-05T04:59:46;103952.03;;;7.08;94.30
74594;BME280;63097;51.872;4.460;2023-02-05T05:02:12;103959.19;;;7.01;93.57
74594;BME280;63097;51.872;4.460;2023-02-05T05:04:37;103956.34;;;6.93;93.28
74594;BME280;63097;51.872;4.460;2023-02-05T05:07:02;103963.34;;;6.88;93.57
74594;BME280;63097;51.872;4.460;2023-02-05T05:09:28;103964.44;;;6.77;94.15
74594;BME280;63097;51.872;4.460;2023-02-05T05:11:54;103964.84;;;6.82;93.84
74594;BME280;63097;51.872;4.460;2023-02-05T05:14:19;103955.59;;;6.64;93.93
74594;BME280;63097;51.872;4.460;2023-02-05T05:16:45;103966.09;;;6.61;94.20
74594;BME280;63097;51.872;4.460;2023-02-05T05:19:10;103972.91;;;6.66;93.80
74594;BME280;63097;51.872;4.460;2023-02-05T05:21:35;103966.38;;;6.58;93.22
74594;BME280;63097;51.872;4.460;2023-02-05T05:24:01;103983.25;;;6.64;92.79
74594;BME280;63097;51.872;4.460;2023-02-05T05:26:26;103976.28;;;6.60;92.38
74594;BME280;63097;51.872;4.460;2023-02-05T05:28:55;103979.53;;;6.46;92.17
74594;BME280;63097;51.872;4.460;2023-02-05T05:31:21;103982.56;;;6.43;92.58
74594;BME280;63097;51.872;4.460;2023-02-05T05:33:47;103984.63;;;6.41;91.18
74594;BME280;63097;51.872;4.460;2023-02-05T05:36:13;104000.53;;;6.30;91.39
74594;BME280;63097;51.872;4.460;2023-02-05T05:38:38;103991.66;;;6.17;90.65
74594;BME280;63097;51.872;4.460;2023-02-05T05:41:04;103995.16;;;6.09;90.20
74594;BME280;63097;51.872;4.460;2023-02-05T05:43:30;103997.66;;;5.93;91.11
74594;BME280;63097;51.872;4.460;2023-02-05T05:45:55;104001.88;;;5.87;91.37
74594;BME280;63097;51.872;4.460;2023-02-05T05:48:20;104006.22;;;5.90;90.12
74594;BME280;63097;51.872;4.460;2023-02-05T05:50:46;103988.91;;;5.78;90.36
74594;BME280;63097;51.872;4.460;2023-02-05T05:53:11;104019.88;;;5.82;89.71
74594;BME280;63097;51.872;4.460;2023-02-05T05:55:36;104018.25;;;5.79;89.45
74594;BME280;63097;51.872;4.460;2023-02-05T05:58:02;104013.47;;;5.81;89.35
74594;BME280;63097;51.872;4.460;2023-02-05T06:00:27;104017.72;;;5.85;89.34
74594;BME280;63097;51.872;4.460;2023-02-05T06:02:52;104018.72;;;5.84;89.71
74594;BME280;63097;51.872;4.460;2023-02-05T06:05:18;104022.53;;;5.93;88.84
74594;BME280;63097;51.872;4.460;2023-02-05T06:07:43;104025.13;;;6.04;88.03
74594;BME280;63097;51.872;4.460;2023-02-05T06:10:08;104035.16;;;5.95;89.00
74594;BME280;63097;51.872;4.460;2023-02-05T06:12:34;104035.63;;;6.00;89.00
74594;BME280;63097;51.872;4.460;2023-02-05T06:14:59;104018.72;;;6.03;88.80
74594;BME280;63097;51.872;4.460;2023-02-05T06:17:24;104027.88;;;6.13;87.60
74594;BME280;63097;51.872;4.460;2023-02-05T06:19:49;104039.22;;;6.01;88.25
74594;BME280;63097;51.872;4.460;2023-02-05T06:22:15;104039.53;;;5.98;87.99
74594;BME280;63097;51.872;4.460;2023-02-05T06:24:40;104047.25;;;6.04;87.58
74594;BME280;63097;51.872;4.460;2023-02-05T06:27:05;104046.22;;;6.05;87.63
74594;BME280;63097;51.872;4.460;2023-02-05T06:29:31;104063.09;;;6.02;88.12
74594;BME280;63097;51.872;4.460;2023-02-05T06:31:56;104069.19;;;5.96;89.00
74594;BME280;63097;51.872;4.460;2023-02-05T06:34:21;104069.91;;;5.88;89.96
74594;BME280;63097;51.872;4.460;2023-02-05T06:36:47;104069.91;;;5.88;89.78
74594;BME280;63097;51.872;4.460;2023-02-05T06:39:12;104076.00;;;5.92;89.12
74594;BME280;63097;51.872;4.460;2023-02-05T06:41:37;104085.06;;;6.03;88.40
74594;BME280;63097;51.872;4.460;2023-02-05T06:44:02;104080.25;;;6.05;88.21
74594;BME280;63097;51.872;4.460;2023-02-05T06:46:28;104099.88;;;6.02;88.51
74594;BME280;63097;51.872;4.460;2023-02-05T06:48:53;104102.81;;;6.20;86.56
74594;BME280;63097;51.872;4.460;2023-02-05T06:51:18;104102.81;;;6.20;86.12
74594;BME280;63097;51.872;4.460;2023-02-05T06:53:44;104111.81;;;6.22;85.93
74594;BME280;63097;51.872;4.460;2023-02-05T06:56:09;104113.53;;;6.13;86.36
74594;BME280;63097;51.872;4.460;2023-02-05T06:58:34;104121.84;;;6.13;86.70
74594;BME280;63097;51.872;4.460;2023-02-05T07:01:01;104132.47;;;6.18;86.08
74594;BME280;63097;51.872;4.460;2023-02-05T07:03:26;104128.25;;;6.14;86.31
74594;BME280;63097;51.872;4.460;2023-02-05T07:05:52;104132.19;;;6.21;86.48
74594;BME280;63097;51.872;4.460;2023-02-05T07:08:17;104144.41;;;6.19;86.56
74594;BME280;63097;51.872;4.460;2023-02-05T07:10:42;104154.44;;;6.20;86.57
74594;BME280;63097;51.872;4.460;2023-02-05T07:13:08;104150.97;;;6.27;86.31
74594;BME280;63097;51.872;4.460;2023-02-05T07:15:36;104159.56;;;6.24;86.28
74594;BME280;63097;51.872;4.460;2023-02-05T07:18:02;104167.72;;;6.35;85.89
74594;BME280;63097;51.872;4.460;2023-02-05T07:20:27;104165.22;;;6.42;85.13
74594;BME280;63097;51.872;4.460;2023-02-05T07:22:53;104176.28;;;6.42;84.90
74594;BME280;63097;51.872;4.460;2023-02-05T07:25:18;104177.44;;;6.20;85.83
74594;BME280;63097;51.872;4.460;2023-02-05T07:27:43;104186.47;;;6.41;85.18
74594;BME280;63097;51.872;4.460;2023-02-05T07:30:09;104177.31;;;6.41;84.74
74594;BME280;63097;51.872;4.460;2023-02-05T07:32:35;104186.34;;;6.33;85.62
74594;BME280;63097;51.872;4.460;2023-02-05T07:35:00;104179.50;;;6.37;84.92
74594;BME280;63097;51.872;4.460;2023-02-05T07:37:25;104194.31;;;6.36;85.00
74594;BME280;63097;51.872;4.460;2023-02-05T07:39:51;104197.25;;;6.44;85.89
74594;BME280;63097;51.872;4.460;2023-02-05T07:42:16;104203.06;;;6.41;86.40
74594;BME280;63097;51.872;4.460;2023-02-05T07:44:41;104204.50;;;6.36;86.66
74594;BME280;63097;51.872;4.460;2023-02-05T07:47:07;104204.66;;;6.34;86.96
74594;BME280;63097;51.872;4.460;2023-02-05T07:49:32;104214.25;;;6.21;87.50
74594;BME280;63097;51.872;4.460;2023-02-05T07:51:57;104217.91;;;6.40;86.44
74594;BME280;63097;51.872;4.460;2023-02-05T07:54:22;104234.66;;;6.39;86.99
74594;BME280;63097;51.872;4.460;2023-02-05T07:56:48;104221.13;;;6.45;86.31
74594;BME280;63097;51.872;4.460;2023-02-05T07:59:13;104225.34;;;6.49;86.26
74594;BME280;63097;51.872;4.460;2023-02-05T08:01:38;104232.16;;;6.36;87.07
74594;BME280;63097;51.872;4.460;2023-02-05T08:04:04;104228.13;;;6.49;86.98
74594;BME280;63097;51.872;4.460;2023-02-05T08:06:29;104233.50;;;6.60;86.47
74594;BME280;63097;51.872;4.460;2023-02-05T08:08:55;104228.97;;;6.59;85.67
74594;BME280;63097;51.872;4.460;2023-02-05T08:11:21;104238.47;;;6.66;85.04
74594;BME280;63097;51.872;4.460;2023-02-05T08:13:46;104243.88;;;6.77;84.28
74594;BME280;63097;51.872;4.460;2023-02-05T08:16:13;104228.72;;;6.72;84.40
74594;BME280;63097;51.872;4.460;2023-02-05T08:18:39;104234.81;;;6.94;82.70
74594;BME280;63097;51.872;4.460;2023-02-05T08:21:04;104240.50;;;6.93;83.05
74594;BME280;63097;51.872;4.460;2023-02-05T08:23:29;104245.59;;;6.97;82.07
74594;BME280;63097;51.872;4.460;2023-02-05T08:25:56;104241.66;;;7.00;81.18
74594;BME280;63097;51.872;4.460;2023-02-05T08:28:23;104246.44;;;7.07;80.60
74594;BME280;63097;51.872;4.460;2023-02-05T08:30:49;104240.59;;;7.10;80.82
74594;BME280;63097;51.872;4.460;2023-02-05T08:33:15;104231.44;;;7.10;80.69
74594;BME280;63097;51.872;4.460;2023-02-05T08:35:40;104253.75;;;7.08;80.43
74594;BME280;63097;51.872;4.460;2023-02-05T08:38:06;104256.78;;;7.05;80.30
74594;BME280;63097;51.872;4.460;2023-02-05T08:40:31;104259.97;;;7.20;79.55
74594;BME280;63097;51.872;4.460;2023-02-05T08:42:56;104271.50;;;7.25;79.74
74594;BME280;63097;51.872;4.460;2023-02-05T08:45:26;104253.28;;;7.23;79.19
74594;BME280;63097;51.872;4.460;2023-02-05T08:47:51;104261.31;;;7.06;80.61
74594;BME280;63097;51.872;4.460;2023-02-05T08:50:18;104267.44;;;7.10;80.54
74594;BME280;63097;51.872;4.460;2023-02-05T08:52:44;104259.81;;;7.31;78.60
74594;BME280;63097;51.872;4.460;2023-02-05T08:55:09;104284.06;;;7.20;79.78
74594;BME280;63097;51.872;4.460;2023-02-05T08:57:34;104281.09;;;7.40;78.65
74594;BME280;63097;51.872;4.460;2023-02-05T09:00:00;104277.72;;;7.46;79.13
74594;BME280;63097;51.872;4.460;2023-02-05T09:02:25;104282.69;;;7.43;78.91
74594;BME280;63097;51.872;4.460;2023-02-05T09:04:50;104288.09;;;7.35;78.48
74594;BME280;63097;51.872;4.460;2023-02-05T09:07:16;104293.78;;;7.33;78.08
74594;BME280;63097;51.872;4.460;2023-02-05T09:09:41;104299.47;;;7.41;78.64
74594;BME280;63097;51.872;4.460;2023-02-05T09:12:07;104296.41;;;7.35;78.91
74594;BME280;63097;51.872;4.460;2023-02-05T09:14:32;104297.28;;;7.35;78.91
74594;BME280;63097;51.872;4.460;2023-02-05T09:16:57;104296.97;;;7.38;79.35
74594;BME280;63097;51.872;4.460;2023-02-05T09:19:23;104292.84;;;7.71;76.96
74594;BME280;63097;51.872;4.460;2023-02-05T09:21:48;104298.81;;;7.66;77.78
74594;BME280;63097;51.872;4.460;2023-02-05T09:24:13;104300.88;;;7.55;77.75
74594;BME280;63097;51.872;4.460;2023-02-05T09:26:39;104307.16;;;7.47;78.29
74594;BME280;63097;51.872;4.460;2023-02-05T09:29:04;104263.38;;;7.60;76.64
74594;BME280;63097;51.872;4.460;2023-02-05T09:31:29;104278.88;;;7.53;77.96
74594;BME280;63097;51.872;4.460;2023-02-05T09:33:54;104277.53;;;7.67;76.94
74594;BME280;63097;51.872;4.460;2023-02-05T09:36:21;104278.06;;;7.80;77.12
74594;BME280;63097;51.872;4.460;2023-02-05T09:38:47;104276.81;;;7.65;77.86
74594;BME280;63097;51.872;4.460;2023-02-05T09:43:52;104291.97;;;7.61;77.29
74594;BME280;63097;51.872;4.460;2023-02-05T09:49:37;104281.06;;;7.96;76.63
74594;BME280;63097;51.872;4.460;2023-02-05T09:52:07;104253.78;;;7.91;76.03
74594;BME280;63097;51.872;4.460;2023-02-05T09:54:41;104258.72;;;7.97;76.68
74594;BME280;63097;51.872;4.460;2023-02-05T09:57:13;104276.78;;;8.11;75.69
74594;BME280;63097;51.872;4.460;2023-02-05T09:59:44;104277.16;;;8.26;74.93
74594;BME280;63097;51.872;4.460;2023-02-05T10:02:25;104290.31;;;8.14;75.62
74594;BME280;63097;51.872;4.460;2023-02-05T10:04:52;104289.28;;;8.25;74.90
74594;BME280;63097;51.872;4.460;2023-02-05T10:07:39;104301.09;;;8.27;75.64
74594;BME280;63097;51.872;4.460;2023-02-05T10:10:28;104289.06;;;7.99;76.48
74594;BME280;63097;51.872;4.460;2023-02-05T10:25:01;104293.53;;;8.09;75.75
74594;BME280;63097;51.872;4.460;2023-02-05T10:27:41;104307.22;;;8.21;75.37
74594;BME280;63097;51.872;4.460;2023-02-05T10:30:25;104305.44;;;8.56;72.84
74594;BME280;63097;51.872;4.460;2023-02-05T10:32:55;104296.56;;;8.53;72.13
74594;BME280;63097;51.872;4.460;2023-02-05T10:35:26;104302.78;;;8.37;73.34
74594;BME280;63097;51.872;4.460;2023-02-05T10:37:56;104314.50;;;8.31;73.47
74594;BME280;63097;51.872;4.460;2023-02-05T10:40:28;104306.13;;;8.04;74.66
74594;BME280;63097;51.872;4.460;2023-02-05T10:43:29;104309.25;;;8.18;74.12
74594;BME280;63097;51.872;4.460;2023-02-05T10:46:00;104313.78;;;8.29;74.31
74594;BME280;63097;51.872;4.460;2023-02-05T10:51:16;104307.69;;;8.70;71.68
74594;BME280;63097;51.872;4.460;2023-02-05T10:53:43;104316.13;;;8.24;73.52
74594;BME280;63097;51.872;4.460;2023-02-05T10:56:15;104328.66;;;8.28;72.99
74594;BME280;63097;51.872;4.460;2023-02-05T10:58:59;104319.41;;;8.37;72.99
74594;BME280;63097;51.872;4.460;2023-02-05T11:01:33;104316.91;;;8.71;72.05
74594;BME280;63097;51.872;4.460;2023-02-05T11:04:02;104329.66;;;8.81;72.50
74594;BME280;63097;51.872;4.460;2023-02-05T11:06:38;104321.13;;;9.10;69.90
74594;BME280;63097;51.872;4.460;2023-02-05T11:09:34;104323.56;;;8.95;71.69
74594;BME280;63097;51.872;4.460;2023-02-05T11:12:03;104324.34;;;9.84;68.67
74594;BME280;63097;51.872;4.460;2023-02-05T11:14:32;104318.66;;;10.19;67.13
74594;BME280;63097;51.872;4.460;2023-02-05T11:17:03;104321.03;;;10.89;65.35
74594;BME280;63097;51.872;4.460;2023-02-05T11:19:30;104313.31;;;10.75;65.63
74594;BME280;63097;51.872;4.460;2023-02-05T11:21:58;104299.13;;;9.85;66.71
74594;BME280;63097;51.872;4.460;2023-02-05T11:27:10;104290.13;;;9.40;68.97
74594;BME280;63097;51.872;4.460;2023-02-05T11:29:37;104290.19;;;9.23;68.85
74594;BME280;63097;51.872;4.460;2023-02-05T11:32:02;104274.09;;;8.73;70.42
74594;BME280;63097;51.872;4.460;2023-02-05T11:34:28;104274.78;;;9.28;68.61
74594;BME280;63097;51.872;4.460;2023-02-05T11:36:55;104273.75;;;9.55;67.47
74594;BME280;63097;51.872;4.460;2023-02-05T11:39:34;104292.75;;;9.42;68.07
74594;BME280;63097;51.872;4.460;2023-02-05T11:42:16;104288.63;;;9.71;66.61
74594;BME280;63097;51.872;4.460;2023-02-05T11:44:57;104295.94;;;9.29;67.34
74594;BME280;63097;51.872;4.460;2023-02-05T11:47:33;104289.94;;;8.98;68.49
74594;BME280;63097;51.872;4.460;2023-02-05T11:50:02;104293.75;;;9.15;67.78
74594;BME280;63097;51.872;4.460;2023-02-05T11:52:32;104288.13;;;9.25;67.68
74594;BME280;63097;51.872;4.460;2023-02-05T11:54:58;104300.00;;;9.35;68.05
74594;BME280;63097;51.872;4.460;2023-02-05T12:02:34;104298.03;;;9.53;66.49
74594;BME280;63097;51.872;4.460;2023-02-05T12:10:42;104296.53;;;10.43;63.25
74594;BME280;63097;51.872;4.460;2023-02-05T12:15:58;104297.72;;;11.14;62.67
74594;BME280;63097;51.872;4.460;2023-02-05T12:21:57;104306.44;;;12.31;57.49
74594;BME280;63097;51.872;4.460;2023-02-05T12:37:59;104305.16;;;10.32;62.74
74594;BME280;63097;51.872;4.460;2023-02-05T12:45:48;104299.13;;;11.59;58.45
74594;BME280;63097;51.872;4.460;2023-02-05T12:48:32;104311.06;;;10.79;60.04
74594;BME280;63097;51.872;4.460;2023-02-05T12:59:00;104291.44;;;11.29;58.42
74594;BME280;63097;51.872;4.460;2023-02-05T13:01:36;104307.50;;;11.19;59.22
74594;BME280;63097;51.872;4.460;2023-02-05T13:04:05;104309.22;;;12.31;56.70
74594;BME280;63097;51.872;4.460;2023-02-05T13:06:42;104287.44;;;12.65;54.42
74594;BME280;63097;51.872;4.460;2023-02-05T13:09:19;104300.66;;;12.40;56.88
74594;BME280;63097;51.872;4.460;2023-02-05T13:11:53;104301.03;;;12.37;56.39
74594;BME280;63097;51.872;4.460;2023-02-05T13:14:25;104313.28;;;12.28;55.96
74594;BME280;63097;51.872;4.460;2023-02-05T13:17:05;104311.50;;;11.24;59.31
74594;BME280;63097;51.872;4.460;2023-02-05T13:19:35;104299.91;;;10.71;61.17
74594;BME280;63097;51.872;4.460;2023-02-05T13:22:06;104300.31;;;10.34;62.04
74594;BME280;63097;51.872;4.460;2023-02-05T13:24:45;104304.84;;;11.01;61.26
74594;BME280;63097;51.872;4.460;2023-02-05T13:27:19;104314.91;;;10.86;61.28
74594;BME280;63097;51.872;4.460;2023-02-05T13:29:49;104303.13;;;11.80;58.17
74594;BME280;63097;51.872;4.460;2023-02-05T13:32:17;104306.72;;;12.05;57.63
74594;BME280;63097;51.872;4.460;2023-02-05T13:34:45;104310.31;;;10.53;61.23
74594;BME280;63097;51.872;4.460;2023-02-05T13:40:09;104312.88;;;11.20;60.38
74594;BME280;63097;51.872;4.460;2023-02-05T13:45:51;104320.91;;;11.55;58.18
74594;BME280;63097;51.872;4.460;2023-02-05T13:49:03;104320.38;;;11.20;59.89
74594;BME280;63097;51.872;4.460;2023-02-05T13:51:51;104330.50;;;11.37;59.41
74594;BME280;63097;51.872;4.460;2023-02-05T13:54:49;104337.09;;;11.36;60.02
74594;BME280;63097;51.872;4.460;2023-02-05T14:00:23;104349.63;;;10.16;63.75
74594;BME280;63097;51.872;4.460;2023-02-05T14:02:54;104336.25;;;9.76;65.25
74594;BME280;63097;51.872;4.460;2023-02-05T14:05:31;104320.56;;;12.37;56.95
74594;BME280;63097;51.872;4.460;2023-02-05T14:07:58;104342.16;;;11.64;58.03
74594;BME280;63097;51.872;4.460;2023-02-05T14:10:27;104334.28;;;10.12;63.05
74594;BME280;63097;51.872;4.460;2023-02-05T14:15:42;104342.50;;;11.53;58.84
74594;BME280;63097;51.872;4.460;2023-02-05T14:18:13;104332.59;;;11.67;59.55
74594;BME280;63097;51.872;4.460;2023-02-05T14:20:56;104340.97;;;11.75;58.50
74594;BME280;63097;51.872;4.460;2023-02-05T14:26:12;104323.00;;;11.53;58.46
74594;BME280;63097;51.872;4.460;2023-02-05T14:28:45;104324.13;;;12.23;56.81
74594;BME280;63097;51.872;4.460;2023-02-05T14:31:43;104334.47;;;11.18;59.69
74594;BME280;63097;51.872;4.460;2023-02-05T14:34:44;104332.22;;;9.96;63.87
74594;BME280;63097;51.872;4.460;2023-02-05T14:37:33;104331.69;;;9.93;64.63
74594;BME280;63097;51.872;4.460;2023-02-05T14:42:53;104328.56;;;10.55;62.75
74594;BME280;63097;51.872;4.460;2023-02-05T14:45:21;104323.00;;;11.29;60.56
74594;BME280;63097;51.872;4.460;2023-02-05T14:47:47;104330.50;;;11.69;58.71
74594;BME280;63097;51.872;4.460;2023-02-05T14:50:19;104328.38;;;12.50;57.13
74594;BME280;63097;51.872;4.460;2023-02-05T14:52:48;104329.28;;;13.34;54.32
74594;BME280;63097;51.872;4.460;2023-02-05T14:58:00;104344.03;;;11.96;57.91